Time;durP1;ratioP1;P1;durP2;ratioP2;P2;SDS_P1;SDS_P2;PMS_P1;PMS_P2;Temp;Humidity;BMP_temperature;BMP_pressure;BME280_temperature;BME280_humidity;BME280_pressure;Samples;Min_cycle;Max_cycle;Signal;HPM_P1;HPM_P2
2022/12/24 00:02:02;;;;;;;100.07;52.88;;;;;;;7.81;100.00;100402.53;4997108;28;20053;-86
2022/12/24 00:04:27;;;;;;;102.22;53.42;;;;;;;7.87;100.00;100401.94;4996674;28;20041;-86
2022/12/24 00:06:53;;;;;;;97.43;50.58;;;;;;;8.01;100.00;100404.06;4995114;28;20038;-87
2022/12/24 00:09:18;;;;;;;96.07;49.88;;;;;;;7.91;100.00;100413.00;4995506;28;20401;-87
2022/12/24 00:11:44;;;;;;;102.70;54.13;;;;;;;7.76;100.00;100405.59;4995874;28;20041;-86
2022/12/24 00:14:09;;;;;;;101.03;52.63;;;;;;;7.68;100.00;100394.13;4996473;28;20161;-87
2022/12/24 00:16:35;;;;;;;103.63;53.85;;;;;;;7.65;100.00;100407.59;4995038;28;20038;-85
2022/12/24 00:19:00;;;;;;;96.63;51.95;;;;;;;7.78;100.00;100393.09;4993795;28;20034;-85
2022/12/24 00:21:26;;;;;;;98.75;53.30;;;;;;;7.64;100.00;100384.84;4993730;28;20042;-87
2022/12/24 00:23:51;;;;;;;103.47;52.08;;;;;;;7.61;100.00;100380.69;4994877;28;20120;-86
2022/12/24 00:26:17;;;;;;;99.35;51.72;;;;;;;7.73;100.00;100384.78;4993566;28;20030;-85
2022/12/24 00:28:42;;;;;;;104.47;53.20;;;;;;;7.68;100.00;100396.75;4994757;28;20033;-85
2022/12/24 00:31:14;;;;;;;100.40;52.45;;;;;;;7.78;100.00;100390.47;4993920;28;20132;-84
2022/12/24 00:33:39;;;;;;;98.68;51.92;;;;;;;7.75;100.00;100393.41;4995591;28;20474;-83
2022/12/24 00:36:06;;;;;;;100.32;52.47;;;;;;;7.77;100.00;100391.44;4995220;28;20041;-85
2022/12/24 00:38:31;;;;;;;100.50;51.75;;;;;;;7.73;100.00;100402.41;4994208;28;20503;-86
2022/12/24 00:41:02;;;;;;;103.35;52.83;;;;;;;7.60;100.00;100415.94;4993300;28;20151;-88
2022/12/24 00:43:28;;;;;;;100.95;54.20;;;;;;;7.48;100.00;100437.38;4994562;28;20026;-85
2022/12/24 00:45:54;;;;;;;110.88;58.17;;;;;;;7.46;100.00;100429.59;4994180;28;20597;-87
2022/12/24 00:48:21;;;;;;;109.65;55.28;;;;;;;7.45;100.00;100411.28;4994080;28;20058;-87
2022/12/24 00:50:48;;;;;;;107.28;54.10;;;;;;;7.59;100.00;100379.97;4981061;28;20142;-86
2022/12/24 00:53:14;;;;;;;105.97;54.83;;;;;;;7.58;100.00;100367.78;4974775;28;20026;-86
2022/12/24 00:55:40;;;;;;;120.95;56.08;;;;;;;7.50;100.00;100378.22;4974163;28;20058;-87
2022/12/24 00:58:05;;;;;;;112.90;58.78;;;;;;;7.53;100.00;100375.31;4975053;28;20130;-86
2022/12/24 01:00:31;;;;;;;109.72;56.60;;;;;;;7.51;100.00;100374.63;4974382;28;20038;-87
2022/12/24 01:02:56;;;;;;;116.82;56.90;;;;;;;7.40;100.00;100393.25;4974490;28;20170;-87
2022/12/24 01:05:22;;;;;;;108.32;56.83;;;;;;;7.61;100.00;100416.78;4974421;28;20034;-87
2022/12/24 01:07:47;;;;;;;112.50;56.08;;;;;;;7.58;100.00;100440.81;4973573;28;20039;-88
2022/12/24 01:10:17;;;;;;;111.13;58.30;;;;;;;7.60;100.00;100452.88;4974580;28;20066;-86
2022/12/24 01:12:43;;;;;;;108.13;56.72;;;;;;;7.56;100.00;100438.28;4974573;28;20031;-87
2022/12/24 01:15:10;;;;;;;115.53;58.88;;;;;;;7.54;100.00;100458.72;4974271;28;20052;-87
2022/12/24 01:17:36;;;;;;;113.80;59.28;;;;;;;7.63;100.00;100471.03;4977855;28;20046;-87
2022/12/24 01:20:03;;;;;;;113.55;58.95;;;;;;;7.60;100.00;100463.41;4977975;28;20045;-86
2022/12/24 01:22:29;;;;;;;112.53;58.03;;;;;;;7.65;100.00;100476.19;4978780;28;20042;-87
2022/12/24 01:24:55;;;;;;;114.38;59.25;;;;;;;7.64;100.00;100483.25;4978693;28;20039;-87
2022/12/24 01:27:20;;;;;;;108.07;58.00;;;;;;;7.79;100.00;100483.59;4978423;28;20474;-89
2022/12/24 01:29:47;;;;;;;112.18;57.42;;;;;;;7.73;100.00;100479.75;4977554;28;20042;-88
2022/12/24 01:32:12;;;;;;;115.32;60.75;;;;;;;7.68;100.00;100481.16;4978539;28;20031;-87
2022/12/24 01:34:38;;;;;;;109.97;58.05;;;;;;;7.86;100.00;100478.56;4980555;28;20069;-88
2022/12/24 01:37:03;;;;;;;117.97;58.95;;;;;;;7.73;100.00;100507.94;4987613;28;20058;-88
2022/12/24 01:39:29;;;;;;;119.22;62.22;;;;;;;7.60;100.00;100516.16;4979027;28;20061;-89
2022/12/24 01:44:43;;;;;;;129.48;64.28;;;;;;;7.51;100.00;100509.13;4978283;28;20027;-86
2022/12/24 01:47:19;;;;;;;126.30;63.97;;;;;;;7.63;100.00;100493.94;4977739;28;20398;-86
2022/12/24 01:49:51;;;;;;;131.98;62.92;;;;;;;7.64;100.00;100492.97;4977980;28;20545;-88
2022/12/24 01:52:34;;;;;;;125.88;63.53;;;;;;;7.63;100.00;100484.22;4977762;28;20114;-86
2022/12/24 01:55:11;;;;;;;128.80;63.20;;;;;;;7.59;100.00;100469.66;4977918;28;20573;-87
2022/12/24 01:57:41;;;;;;;128.02;63.65;;;;;;;7.58;100.00;100470.66;4976585;28;20031;-87
2022/12/24 02:00:10;;;;;;;123.00;62.20;;;;;;;7.89;100.00;100473.84;4975984;28;20035;-81
2022/12/24 02:02:39;;;;;;;125.00;62.55;;;;;;;7.74;100.00;100467.38;4977757;28;20033;-87
2022/12/24 02:05:14;;;;;;;125.25;62.10;;;;;;;7.72;100.00;100475.44;4961560;28;20522;-86
2022/12/24 02:07:43;;;;;;;127.53;64.80;;;;;;;7.72;100.00;100491.25;4983731;28;20030;-87
2022/12/24 02:10:11;;;;;;;127.07;64.15;;;;;;;7.65;100.00;100487.56;4986910;28;20043;-85
2022/12/24 02:12:39;;;;;;;135.80;63.92;;;;;;;7.57;100.00;100484.81;4981072;28;20505;-88
2022/12/24 02:15:08;;;;;;;124.47;62.55;;;;;;;7.53;100.00;100490.50;4977920;28;20039;-88
2022/12/24 02:17:45;;;;;;;130.13;63.40;;;;;;;7.55;100.00;100497.31;4978406;28;20046;-88
2022/12/24 02:20:30;;;;;;;126.93;60.63;;;;;;;7.66;100.00;100488.38;4978035;28;20038;-86
2022/12/24 02:22:58;;;;;;;123.65;63.00;;;;;;;7.93;100.00;100484.94;4978209;28;20045;-86
2022/12/24 02:25:43;;;;;;;128.80;63.90;;;;;;;7.68;100.00;100482.00;4977851;28;20446;-85
2022/12/24 02:28:53;;;;;;;129.77;65.47;;;;;;;7.60;100.00;100468.69;4988719;28;20093;-82
2022/12/24 02:31:40;;;;;;;121.55;62.20;;;;;;;7.79;100.00;100489.72;4951451;28;20087;-85
2022/12/24 02:34:07;;;;;;;126.82;62.08;;;;;;;7.84;100.00;100472.63;4979543;28;20118;-87
2022/12/24 02:36:48;;;;;;;125.35;62.10;;;;;;;7.79;100.00;100465.97;4976539;28;20038;-87
2022/12/24 02:39:46;;;;;;;125.30;63.55;;;;;;;7.78;100.00;100472.25;4977363;28;20068;-88
2022/12/24 02:42:16;;;;;;;135.63;63.83;;;;;;;7.88;100.00;100451.09;4944111;28;20054;-86
2022/12/24 02:44:46;;;;;;;121.25;62.70;;;;;;;7.95;100.00;100452.16;4976669;28;20405;-87
2022/12/24 02:47:14;;;;;;;115.00;60.97;;;;;;;8.18;100.00;100455.22;4976402;28;20110;-87
2022/12/24 02:49:43;;;;;;;116.65;58.85;;;;;;;8.32;100.00;100445.00;4976308;28;20054;-86
2022/12/24 02:52:27;;;;;;;129.45;64.65;;;;;;;7.94;100.00;100439.94;4974891;28;20497;-85
2022/12/24 02:54:53;;;;;;;128.82;62.50;;;;;;;7.77;100.00;100446.81;4973949;28;20063;-77
2022/12/24 02:57:37;;;;;;;128.65;64.25;;;;;;;7.64;100.00;100442.84;4975471;28;20510;-80
2022/12/24 03:00:06;;;;;;;131.23;64.95;;;;;;;7.55;100.00;100422.63;4975436;28;20043;-77
2022/12/24 03:02:48;;;;;;;127.63;65.07;;;;;;;7.57;100.00;100436.50;4957518;28;20523;-78
2022/12/24 03:05:41;;;;;;;90.80;44.83;;;;;;;7.59;100.00;100459.09;4974092;28;20485;-77
2022/12/24 03:08:13;;;;;;;;;;;;;;;7.48;100.00;100477.75;4975424;28;20046;-80
2022/12/24 03:10:53;;;;;;;140.30;67.85;;;;;;;7.43;100.00;100489.69;4975199;28;19921;-79
2022/12/24 03:13:20;;;;;;;129.63;65.10;;;;;;;7.65;100.00;100476.19;4975018;28;20035;-78
2022/12/24 03:15:46;;;;;;;134.43;67.80;;;;;;;7.54;100.00;100469.28;4974946;28;20573;-78
2022/12/24 03:18:16;;;;;;;127.13;63.78;;;;;;;7.55;100.00;100486.75;4975075;28;20066;-78
2022/12/24 03:20:51;;;;;;;126.68;63.55;;;;;;;7.75;100.00;100483.09;4974957;28;20062;-78
2022/12/24 03:23:17;;;;;;;124.10;64.75;;;;;;;7.53;100.00;100443.03;4975208;28;20124;-80
2022/12/24 03:25:44;;;;;;;126.45;65.07;;;;;;;7.42;100.00;100433.50;4975135;28;20042;-77
2022/12/24 03:28:13;;;;;;;132.00;64.70;;;;;;;7.41;100.00;100452.09;4975842;28;20482;-78
2022/12/24 03:30:43;;;;;;;144.20;67.82;;;;;;;7.36;100.00;100454.34;4974978;28;20042;-77
2022/12/24 03:33:10;;;;;;;133.73;66.13;;;;;;;7.62;100.00;100472.00;4974699;28;20066;-78
2022/12/24 03:35:36;;;;;;;130.52;64.57;;;;;;;7.68;100.00;100471.44;4974749;28;20118;-78
2022/12/24 03:38:01;;;;;;;124.80;63.58;;;;;;;7.82;100.00;100457.75;4974818;28;20037;-78
2022/12/24 03:40:27;;;;;;;121.93;60.88;;;;;;;7.88;100.00;100455.53;4974098;28;20474;-76
2022/12/24 03:42:52;;;;;;;128.95;63.65;;;;;;;7.78;100.00;100458.22;4974481;28;20090;-78
2022/12/24 03:45:18;;;;;;;122.28;62.03;;;;;;;7.75;100.00;100447.97;4974536;28;20085;-78
2022/12/24 03:47:43;;;;;;;119.63;60.00;;;;;;;7.76;100.00;100434.59;4974564;28;20035;-78
2022/12/24 03:50:09;;;;;;;136.20;62.00;;;;;;;7.62;100.00;100447.47;4974488;28;20386;-78
2022/12/24 03:52:34;;;;;;;121.90;63.20;;;;;;;7.65;100.00;100450.63;4974281;28;20175;-80
2022/12/24 03:55:00;;;;;;;124.60;63.58;;;;;;;7.84;100.00;100449.72;4973577;28;20114;-78
2022/12/24 03:57:25;;;;;;;129.75;65.10;;;;;;;7.73;100.00;100463.06;4974472;28;20062;-78
2022/12/24 03:59:51;;;;;;;122.22;61.92;;;;;;;7.94;100.00;100460.22;4973281;28;20470;-78
2022/12/24 04:02:16;;;;;;;125.05;62.90;;;;;;;7.79;100.00;100451.94;4974320;28;20038;-77
2022/12/24 04:04:42;;;;;;;125.75;62.47;;;;;;;7.79;100.00;100442.22;4974517;28;20023;-77
2022/12/24 04:07:07;;;;;;;112.38;58.75;;;;;;;8.04;100.00;100437.25;4974767;28;20062;-78
2022/12/24 04:09:33;;;;;;;119.30;63.95;;;;;;;7.92;100.00;100433.16;4974286;28;20035;-78
2022/12/24 04:11:58;;;;;;;123.32;62.92;;;;;;;7.82;100.00;100431.38;4974382;28;20038;-78
2022/12/24 04:14:24;;;;;;;119.80;61.88;;;;;;;7.74;100.00;100439.22;4974454;28;20034;-79
2022/12/24 04:16:50;;;;;;;129.95;62.08;;;;;;;7.61;100.00;100438.72;4974076;28;20513;-77
2022/12/24 04:19:15;;;;;;;126.65;64.22;;;;;;;7.69;100.00;100440.59;4974083;28;20465;-77
2022/12/24 04:21:40;;;;;;;123.20;62.72;;;;;;;7.75;100.00;100432.13;4974176;28;20034;-77
2022/12/24 04:24:06;;;;;;;127.43;62.10;;;;;;;7.88;100.00;100434.41;4974017;28;20070;-78
2022/12/24 04:26:32;;;;;;;124.35;63.05;;;;;;;7.98;100.00;100440.47;4973910;28;20113;-78
2022/12/24 04:28:57;;;;;;;113.20;59.30;;;;;;;8.22;100.00;100443.38;4972941;28;20046;-77
2022/12/24 04:31:23;;;;;;;111.38;58.58;;;;;;;8.32;100.00;100428.31;4972859;28;20034;-77
2022/12/24 04:33:50;;;;;;;112.53;58.63;;;;;;;8.19;100.00;100423.38;4972687;28;20066;-77
2022/12/24 04:36:17;;;;;;;114.88;60.80;;;;;;;8.20;100.00;100424.22;4973839;28;20145;-79
2022/12/24 04:38:44;;;;;;;108.20;57.00;;;;;;;8.40;100.00;100427.59;4973598;28;20137;-79
2022/12/24 04:41:15;;;;;;;116.32;61.13;;;;;;;8.31;100.00;100429.31;4974054;28;20401;-79
2022/12/24 04:43:41;;;;;;;120.68;60.13;;;;;;;8.25;100.00;100446.53;4973690;28;20034;-77
2022/12/24 04:46:09;;;;;;;122.57;60.67;;;;;;;8.21;100.00;100432.00;4973567;28;20054;-78
2022/12/24 04:48:35;;;;;;;117.45;62.22;;;;;;;8.30;100.00;100432.94;4973608;28;20082;-77
2022/12/24 04:51:02;;;;;;;122.43;60.58;;;;;;;8.17;100.00;100422.72;4974520;28;20317;-78
2022/12/24 04:53:28;;;;;;;122.47;60.58;;;;;;;7.99;100.00;100410.44;4977722;28;20031;-77
2022/12/24 04:55:53;;;;;;;113.10;60.50;;;;;;;8.14;100.00;100409.81;4977838;28;20042;-78
2022/12/24 04:58:19;;;;;;;116.00;61.63;;;;;;;8.20;100.00;100403.09;4979652;28;20102;-79
2022/12/24 05:00:46;;;;;;;119.93;62.42;;;;;;;8.18;100.00;100395.34;4979363;28;20471;-78
2022/12/24 05:03:12;;;;;;;115.18;60.90;;;;;;;8.42;100.00;100388.66;4979451;28;20035;-81
2022/12/24 05:05:37;;;;;;;127.75;60.45;;;;;;;8.41;100.00;100395.75;4979085;28;20086;-80
2022/12/24 05:08:03;;;;;;;111.90;57.47;;;;;;;8.36;100.00;100408.56;4979863;28;20057;-78
2022/12/24 05:10:29;;;;;;;116.72;60.22;;;;;;;8.13;100.00;100394.94;4978607;28;20452;-78
2022/12/24 05:12:54;;;;;;;117.40;60.10;;;;;;;8.08;100.00;100384.03;4979234;28;20038;-78
2022/12/24 05:15:20;;;;;;;123.25;60.47;;;;;;;8.18;100.00;100386.59;4978172;28;20201;-79
2022/12/24 05:17:45;;;;;;;123.05;61.40;;;;;;;8.10;100.00;100373.31;4978818;28;20122;-81
2022/12/24 05:20:11;;;;;;;123.30;63.08;;;;;;;8.00;100.00;100361.97;4978756;28;20031;-79
2022/12/24 05:28:05;;;;;;;128.65;64.43;;;;;;;7.84;100.00;100394.31;4977336;28;20517;-78
2022/12/24 05:30:30;;;;;;;138.23;64.95;;;;;;;7.80;100.00;100401.69;4977130;28;20081;-78
2022/12/24 05:32:56;;;;;;;128.93;65.68;;;;;;;8.04;100.00;100424.06;4976682;28;20034;-78
2022/12/24 05:35:21;;;;;;;129.07;66.55;;;;;;;7.94;100.00;100433.81;4987230;28;20030;-79
2022/12/24 05:37:47;;;;;;;137.32;67.22;;;;;;;7.84;100.00;100425.13;4996271;28;20544;-78
2022/12/24 05:40:12;;;;;;;129.25;66.65;;;;;;;7.89;100.00;100425.53;4996301;28;20042;-77
2022/12/24 05:42:38;;;;;;;134.77;71.68;;;;;;;7.84;100.00;100427.78;4996296;28;20034;-78
2022/12/24 05:45:03;;;;;;;134.75;68.53;;;;;;;7.82;100.00;100429.75;4996265;28;20397;-79
2022/12/24 05:47:29;;;;;;;137.40;69.60;;;;;;;7.87;100.00;100451.22;4996005;28;20081;-78
2022/12/24 05:49:54;;;;;;;129.60;66.38;;;;;;;7.95;100.00;100451.34;4995988;28;20060;-77
2022/12/24 05:52:20;;;;;;;126.95;67.03;;;;;;;8.05;100.00;100463.50;4996376;28;20105;-79
2022/12/24 05:54:45;;;;;;;126.65;63.80;;;;;;;8.10;100.00;100460.41;4996126;28;20489;-77
2022/12/24 05:57:11;;;;;;;129.35;64.95;;;;;;;8.11;100.00;100456.78;4995958;28;20389;-77
2022/12/24 05:59:36;;;;;;;121.65;62.17;;;;;;;8.18;100.00;100468.44;4996567;28;20053;-77
2022/12/24 06:02:02;;;;;;;129.30;65.72;;;;;;;8.13;100.00;100471.50;4995856;28;20038;-78
2022/12/24 06:04:27;;;;;;;127.75;65.72;;;;;;;8.19;100.00;100470.06;4995983;28;20517;-78
2022/12/24 06:06:53;;;;;;;127.95;64.68;;;;;;;8.17;100.00;100464.13;4995697;28;20038;-77
2022/12/24 06:09:18;;;;;;;126.72;64.95;;;;;;;8.08;100.00;100452.66;4995857;28;20069;-78
2022/12/24 06:11:44;;;;;;;122.68;64.93;;;;;;;8.05;100.00;100444.19;5001063;28;20096;-80
2022/12/24 06:14:09;;;;;;;123.65;65.82;;;;;;;8.16;100.00;100443.97;5005200;28;20041;-78
2022/12/24 06:16:35;;;;;;;126.32;64.63;;;;;;;8.36;100.00;100442.91;4996077;28;20041;-78
2022/12/24 06:19:00;;;;;;;120.13;61.97;;;;;;;8.35;100.00;100443.91;4995662;28;20103;-81
2022/12/24 06:21:26;;;;;;;115.72;60.10;;;;;;;8.43;100.00;100449.25;4995749;28;20038;-78
2022/12/24 06:23:51;;;;;;;106.72;58.55;;;;;;;8.56;100.00;100462.91;4995939;28;20038;-80
2022/12/24 06:26:20;;;;;;;109.25;60.03;;;;;;;8.35;100.00;100469.47;4996878;28;20027;-81
2022/12/24 06:28:48;;;;;;;119.03;62.45;;;;;;;8.23;100.00;100476.72;4996021;28;20026;-79
2022/12/24 06:31:16;;;;;;;121.13;62.25;;;;;;;8.20;100.00;100490.22;4995778;28;20450;-79
2022/12/24 06:33:42;;;;;;;124.13;63.13;;;;;;;8.24;100.00;100494.22;4995943;28;20504;-79
2022/12/24 06:36:13;;;;;;;120.63;62.17;;;;;;;8.15;100.00;100481.94;4995608;28;20169;-82
2022/12/24 06:38:38;;;;;;;126.20;66.10;;;;;;;8.20;100.00;100469.09;4995875;28;20077;-79
2022/12/24 06:41:06;;;;;;;120.05;65.50;;;;;;;8.08;100.00;100468.47;4995931;28;20038;-80
2022/12/24 06:43:33;;;;;;;130.70;67.07;;;;;;;8.11;100.00;100467.34;4995747;28;20462;-79
2022/12/24 06:45:59;;;;;;;125.93;65.70;;;;;;;8.07;100.00;100466.81;4995242;28;20121;-80
2022/12/24 06:48:25;;;;;;;127.50;63.97;;;;;;;8.00;100.00;100459.63;4995967;28;20039;-79
2022/12/24 06:50:51;;;;;;;122.65;65.05;;;;;;;8.26;100.00;100463.22;4995382;28;20034;-78
2022/12/24 06:53:16;;;;;;;117.32;60.97;;;;;;;8.29;100.00;100455.03;4994181;28;20038;-78
2022/12/24 06:55:42;;;;;;;127.47;64.15;;;;;;;8.02;100.00;100440.00;4995504;28;20478;-79
2022/12/24 06:58:07;;;;;;;138.82;70.47;;;;;;;7.99;100.00;100447.41;4995069;28;20046;-78
2022/12/24 07:00:33;;;;;;;134.05;67.80;;;;;;;7.94;100.00;100454.94;4994875;28;20474;-79
2022/12/24 07:02:59;;;;;;;133.23;67.07;;;;;;;7.75;100.00;100467.25;4994883;28;20042;-81
2022/12/24 07:05:24;;;;;;;137.75;70.45;;;;;;;8.04;100.00;100466.28;4995767;28;20034;-78
2022/12/24 07:07:50;;;;;;;130.80;68.05;;;;;;;8.08;100.00;100468.47;4993977;28;20046;-77
2022/12/24 07:10:16;;;;;;;135.20;66.15;;;;;;;8.16;100.00;100465.91;4995494;28;20038;-80
2022/12/24 07:12:43;;;;;;;137.27;69.10;;;;;;;7.92;100.00;100467.47;4995997;28;20450;-81
2022/12/24 07:15:10;;;;;;;156.35;77.25;;;;;;;7.70;100.00;100458.94;4997227;28;20477;-78
2022/12/24 07:17:35;;;;;;;148.13;72.15;;;;;;;7.65;100.00;100465.63;4995052;28;20038;-78
2022/12/24 07:20:01;;;;;;;151.77;74.18;;;;;;;7.63;100.00;100462.28;4994695;28;20118;-78
2022/12/24 07:22:26;;;;;;;148.82;72.82;;;;;;;7.68;100.00;100468.81;4994575;28;20049;-78
2022/12/24 07:24:52;;;;;;;139.10;71.45;;;;;;;7.76;100.00;100466.25;4994664;28;20125;-78
2022/12/24 07:27:19;;;;;;;143.20;73.32;;;;;;;7.95;100.00;100467.16;4994478;28;20367;-78
2022/12/24 07:29:44;;;;;;;133.50;68.55;;;;;;;7.94;100.00;100470.78;4994249;28;20041;-79
2022/12/24 07:32:10;;;;;;;139.43;69.80;;;;;;;8.09;100.00;100461.38;4994837;28;20034;-79
2022/12/24 07:34:35;;;;;;;137.85;70.07;;;;;;;8.11;100.00;100460.28;4993954;28;20417;-80
2022/12/24 07:37:01;;;;;;;139.15;70.95;;;;;;;8.00;100.00;100464.91;4993661;28;20037;-78
2022/12/24 07:39:26;;;;;;;131.43;69.43;;;;;;;8.09;100.00;100464.00;4994230;28;20049;-80
2022/12/24 07:41:52;;;;;;;135.32;66.43;;;;;;;8.14;100.00;100461.78;4994751;28;20030;-80
2022/12/24 07:44:18;;;;;;;132.27;65.80;;;;;;;8.28;100.00;100456.03;4994739;28;20049;-79
2022/12/24 07:46:44;;;;;;;121.43;64.85;;;;;;;8.51;100.00;100449.34;4994697;28;20034;-79
2022/12/24 07:49:09;;;;;;;134.00;69.25;;;;;;;8.36;100.00;100466.66;4999768;28;20077;-79
2022/12/24 07:51:35;;;;;;;137.93;67.35;;;;;;;8.10;100.00;100476.25;4994535;28;20133;-80
2022/12/24 07:54:01;;;;;;;128.23;66.45;;;;;;;8.17;100.00;100486.06;4994689;28;20034;-80
2022/12/24 07:56:26;;;;;;;119.18;60.25;;;;;;;8.42;100.00;100494.31;4994551;28;20444;-79
2022/12/24 07:58:52;;;;;;;124.22;66.20;;;;;;;8.31;100.00;100503.25;4994436;28;20417;-80
2022/12/24 08:01:18;;;;;;;119.97;65.30;;;;;;;8.41;100.00;100533.09;4994745;28;20042;-81
2022/12/24 08:03:44;;;;;;;124.65;63.25;;;;;;;8.47;100.00;100536.94;4994513;28;20097;-79
2022/12/24 08:06:10;;;;;;;113.72;60.22;;;;;;;8.69;100.00;100536.50;4994440;28;20030;-81
2022/12/24 08:08:36;;;;;;;116.70;64.35;;;;;;;8.62;100.00;100544.19;4968712;28;20042;-81
2022/12/24 08:11:04;;;;;;;123.85;64.45;;;;;;;8.69;100.00;100553.19;4974763;28;20035;-79
2022/12/24 08:13:31;;;;;;;118.90;63.72;;;;;;;8.81;100.00;100541.44;4974801;28;20125;-80
2022/12/24 08:15:57;;;;;;;126.60;64.78;;;;;;;8.65;100.00;100546.53;4974900;28;20130;-79
2022/12/24 08:18:23;;;;;;;119.78;62.45;;;;;;;8.82;100.00;100552.81;4974830;28;20138;-79
2022/12/24 08:20:49;;;;;;;118.32;61.20;;;;;;;8.88;100.00;100552.25;4974362;28;20154;-78
2022/12/24 08:23:15;;;;;;;116.85;63.30;;;;;;;8.77;100.00;100548.00;4973962;28;20027;-81
2022/12/24 08:25:42;;;;;;;115.40;62.33;;;;;;;8.76;100.00;100548.13;4973220;28;20382;-79
2022/12/24 08:28:08;;;;;;;118.30;61.72;;;;;;;8.77;100.00;100558.56;4974621;28;20035;-79
2022/12/24 08:30:34;;;;;;;117.65;63.03;;;;;;;8.72;100.00;100552.06;4974213;28;20089;-80
2022/12/24 08:32:59;;;;;;;124.80;65.32;;;;;;;8.65;100.00;100556.28;4982979;28;20061;-80
2022/12/24 08:35:28;;;;;;;120.88;63.67;;;;;;;8.70;100.00;100560.16;4993869;28;20437;-80
2022/12/24 08:37:53;;;;;;;120.90;63.47;;;;;;;8.72;100.00;100565.25;4993557;28;20158;-78
2022/12/24 08:40:19;;;;;;;128.70;67.35;;;;;;;8.52;100.00;100556.63;4992515;28;20057;-79
2022/12/24 08:42:44;;;;;;;131.13;67.25;;;;;;;8.49;100.00;100567.50;4993464;28;20052;-79
2022/12/24 08:45:10;;;;;;;126.57;68.10;;;;;;;8.54;100.00;100559.97;4995422;28;20061;-78
2022/12/24 08:47:37;;;;;;;127.75;68.28;;;;;;;8.22;100.00;100573.56;4959393;28;20035;-80
2022/12/24 08:50:04;;;;;;;127.90;68.50;;;;;;;8.15;100.00;100588.31;4959140;29;20027;-80
2022/12/24 08:52:29;;;;;;;127.85;68.47;;;;;;;8.26;100.00;100589.94;4956965;29;20086;-80
2022/12/24 08:54:55;;;;;;;125.72;68.82;;;;;;;8.34;100.00;100603.31;4957030;29;20035;-80
2022/12/24 08:57:20;;;;;;;131.30;69.25;;;;;;;8.29;100.00;100601.09;4955109;29;20126;-79
2022/12/24 08:59:46;;;;;;;137.23;71.78;;;;;;;8.27;100.00;100603.03;4955913;29;20070;-79
2022/12/24 09:02:11;;;;;;;139.52;69.90;;;;;;;8.30;100.00;100604.56;4956706;29;20027;-78
2022/12/24 09:04:41;;;;;;;150.10;72.25;;;;;;;8.36;100.00;100609.25;4955305;29;20178;-78
2022/12/24 09:07:07;;;;;;;131.75;68.68;;;;;;;8.38;100.00;100612.59;4955912;29;20089;-78
2022/12/24 09:09:32;;;;;;;147.82;70.68;;;;;;;8.30;100.00;100607.19;4954384;29;20042;-79
2022/12/24 09:11:58;;;;;;;137.85;70.70;;;;;;;8.31;100.00;100616.78;4954586;29;20031;-78
2022/12/24 09:14:23;;;;;;;146.52;72.97;;;;;;;8.32;100.00;100629.00;4955211;29;20023;-79
2022/12/24 09:16:49;;;;;;;144.10;76.78;;;;;;;8.41;100.00;100638.72;4954884;29;20069;-78
2022/12/24 09:19:15;;;;;;;141.93;73.55;;;;;;;8.40;100.00;100634.41;4953438;29;20035;-80
2022/12/24 09:21:40;;;;;;;138.25;69.07;;;;;;;8.34;100.00;100627.06;4954920;29;20046;-80
2022/12/24 09:24:06;;;;;;;141.80;71.90;;;;;;;8.32;100.00;100623.72;4954909;29;20058;-79
2022/12/24 09:26:32;;;;;;;133.82;69.75;;;;;;;8.29;100.00;100613.44;4954547;29;20039;-79
2022/12/24 09:28:59;;;;;;;139.57;70.50;;;;;;;8.28;100.00;100609.16;4954614;29;20035;-78
2022/12/24 09:31:25;;;;;;;142.15;72.25;;;;;;;8.38;100.00;100602.03;4954682;29;20039;-81
2022/12/24 09:33:51;;;;;;;132.15;69.47;;;;;;;8.57;100.00;100595.81;4954592;28;20031;-80
2022/12/24 09:36:18;;;;;;;134.88;70.35;;;;;;;8.46;100.00;100588.09;4954594;28;20478;-79
2022/12/24 09:38:43;;;;;;;138.70;71.15;;;;;;;8.58;100.00;100585.13;4958082;29;20043;-79
2022/12/24 09:41:21;;;;;;;135.00;70.53;;;;;;;8.61;100.00;100599.84;4958650;29;20118;-80
2022/12/24 09:43:52;;;;;;;133.20;70.95;;;;;;;8.67;100.00;100601.88;4957151;28;20380;-82
2022/12/24 09:46:33;;;;;;;128.32;70.18;;;;;;;8.73;100.00;100601.28;4967598;28;20031;-80
2022/12/24 09:49:05;;;;;;;126.07;67.60;;;;;;;8.92;100.00;100602.97;4977814;28;20038;-78
2022/12/24 09:51:38;;;;;;;131.35;69.88;;;;;;;8.69;100.00;100598.09;4976860;28;20467;-81
2022/12/24 09:54:17;;;;;;;126.70;67.15;;;;;;;8.68;100.00;100622.84;4975756;28;20042;-80
2022/12/24 09:56:45;;;;;;;134.95;71.57;;;;;;;8.79;100.00;100625.31;4976599;28;20038;-80
2022/12/24 09:59:15;;;;;;;141.65;71.75;;;;;;;8.69;100.00;100621.88;4976690;28;20085;-80
2022/12/24 10:01:41;;;;;;;132.80;70.53;;;;;;;8.76;100.00;100628.25;4979858;28;20043;-82
2022/12/24 10:04:16;;;;;;;131.23;65.97;;;;;;;8.89;100.00;100640.25;4978449;28;20105;-81
2022/12/24 10:07:13;;;;;;;125.07;65.80;;;;;;;9.09;100.00;100634.72;4979086;28;20039;-82
2022/12/24 10:09:57;;;;;;;129.73;69.50;;;;;;;9.16;100.00;100629.66;4980468;28;20524;-83
2022/12/24 10:12:31;;;;;;;126.70;65.90;;;;;;;9.26;100.00;100630.41;4981655;28;20109;-83
2022/12/24 10:15:06;;;;;;;120.57;65.13;;;;;;;9.26;100.00;100630.41;4980621;28;20035;-82
2022/12/24 10:17:58;;;;;;;123.47;64.20;;;;;;;9.49;100.00;100636.06;5011747;28;20054;-81
2022/12/24 10:20:55;;;;;;;121.85;64.50;;;;;;;9.21;100.00;100644.06;4987062;28;20108;-84
2022/12/24 10:23:37;;;;;;;124.57;64.90;;;;;;;9.07;100.00;100641.13;4985888;28;20065;-81
2022/12/24 10:26:17;;;;;;;125.45;68.10;;;;;;;9.11;100.00;100632.78;4980402;28;20046;-83
2022/12/24 10:29:05;;;;;;;129.82;68.32;;;;;;;8.94;100.00;100635.38;4994733;28;20506;-79
2022/12/24 10:32:01;;;;;;;140.27;69.95;;;;;;;8.92;100.00;100626.75;4978259;28;20117;-80
2022/12/24 10:34:32;;;;;;;127.53;68.15;;;;;;;8.98;100.00;100642.84;4977612;28;20031;-79
2022/12/24 10:36:59;;;;;;;133.40;69.63;;;;;;;8.93;100.00;100650.41;4977482;28;20429;-82
2022/12/24 10:39:26;;;;;;;137.05;71.13;;;;;;;8.89;100.00;100637.63;4978425;28;20041;-80
2022/12/24 10:41:56;;;;;;;135.23;70.30;;;;;;;9.29;100.00;100632.75;4979755;28;20667;-80
2022/12/24 10:44:25;;;;;;;135.88;71.57;;;;;;;9.07;100.00;100631.41;4980359;28;20042;-84
2022/12/24 10:46:51;;;;;;;131.68;66.75;;;;;;;8.99;100.00;100633.09;4950696;28;20361;-81
2022/12/24 10:49:33;;;;;;;137.48;73.00;;;;;;;9.16;100.00;100642.88;4922210;28;20026;-83
2022/12/24 10:52:05;;;;;;;142.20;71.57;;;;;;;9.35;100.00;100635.63;4967270;28;20526;-83
2022/12/24 10:54:37;;;;;;;142.85;73.15;;;;;;;9.32;100.00;100640.38;4968916;28;20111;-81
2022/12/24 10:57:03;;;;;;;;;;;;;;;9.04;100.00;100630.88;4968532;28;20057;-81
2022/12/24 10:59:38;;;;;;;143.55;74.70;;;;;;;9.00;100.00;100630.31;4970310;28;20316;-80
2022/12/24 11:02:23;;;;;;;148.13;74.80;;;;;;;9.05;100.00;100627.25;4964898;28;20053;-81
2022/12/24 11:04:49;;;;;;;156.10;79.28;;;;;;;9.07;100.00;100635.84;4966992;28;20094;-80
2022/12/24 11:07:20;;;;;;;148.27;75.47;;;;;;;9.37;100.00;100634.66;4966985;28;20058;-81
2022/12/24 11:10:00;;;;;;;140.77;74.65;;;;;;;9.10;100.00;100643.47;4967975;28;20414;-80
2022/12/24 11:12:33;;;;;;;147.70;78.43;;;;;;;9.33;100.00;100645.53;4971669;28;20390;-84
2022/12/24 11:15:00;;;;;;;;;;;;;;;9.36;100.00;100636.47;4971079;28;20540;-81
2022/12/24 11:17:26;;;;;;;142.23;73.00;;;;;;;9.38;100.00;100631.03;4971050;28;19918;-83